createdAt,value
2023-01-11T00:00:59.511Z,16.2
2023-01-11T00:02:02.210Z,16.2
2023-01-11T00:03:04.428Z,16.2
2023-01-11T00:04:06.130Z,16.2
2023-01-11T00:05:08.368Z,16.2
2023-01-11T00:06:10.913Z,16.2
2023-01-11T00:07:13.153Z,16.2
2023-01-11T00:08:15.401Z,16.2
2023-01-11T00:09:17.394Z,16.2
2023-01-11T00:10:19.365Z,16.2
2023-01-11T00:11:21.672Z,16.2
2023-01-11T00:12:23.899Z,16.2
2023-01-11T00:13:26.423Z,16.2
2023-01-11T00:14:28.415Z,16.3
2023-01-11T00:15:30.915Z,16.3
2023-01-11T00:16:33.204Z,16.2
2023-01-11T00:17:35.784Z,16.2
2023-01-11T00:18:38.148Z,16.3
2023-01-11T00:19:40.086Z,16.3
2023-01-11T00:20:42.299Z,16.3
2023-01-11T00:21:44.845Z,16.3
2023-01-11T00:22:47.107Z,16.3
2023-01-11T00:23:48.780Z,16.3
2023-01-11T00:24:51.445Z,16.3
2023-01-11T00:25:54.048Z,16.3
2023-01-11T00:26:56.311Z,16.4
2023-01-11T00:27:58.295Z,16.3
2023-01-11T00:29:00.816Z,16.3
2023-01-11T00:30:03.361Z,16.3
2023-01-11T00:31:05.992Z,16.3
2023-01-11T00:32:08.713Z,16.3
2023-01-11T00:33:11.329Z,16.3
2023-01-11T00:34:14.590Z,16.3
2023-01-11T00:35:17.125Z,16.3
2023-01-11T00:36:19.639Z,16.3
2023-01-11T00:37:22.202Z,16.4
2023-01-11T00:38:24.710Z,16.3
2023-01-11T00:39:26.931Z,16.3
2023-01-11T00:40:29.168Z,16.3
2023-01-11T00:41:31.384Z,16.4
2023-01-11T00:42:34.012Z,16.3
2023-01-11T00:43:36.561Z,16.5
2023-01-11T00:44:39.044Z,16.5
2023-01-11T00:45:41.310Z,16.4
2023-01-11T00:46:43.598Z,16.3
2023-01-11T00:47:45.837Z,16.4
2023-01-11T00:48:48.150Z,16.4
2023-01-11T00:49:50.644Z,16.4
2023-01-11T00:50:53.171Z,16.4
2023-01-11T00:51:55.467Z,16.4
2023-01-11T00:52:57.703Z,16.4
2023-01-11T00:54:00.239Z,16.4
2023-01-11T00:55:02.214Z,16.3
2023-01-11T00:56:04.474Z,16.3
2023-01-11T00:57:07.049Z,16.4
2023-01-11T00:58:09.408Z,16.5
2023-01-11T00:59:11.634Z,16.4
2023-01-11T01:00:13.876Z,16.4
2023-01-11T01:01:16.527Z,16.5
2023-01-11T01:02:18.823Z,16.4
2023-01-11T01:03:21.241Z,16.4
2023-01-11T01:04:23.862Z,16.5
2023-01-11T01:05:26.420Z,16.5
2023-01-11T01:06:28.932Z,16.4
2023-01-11T01:07:31.100Z,16.4
2023-01-11T01:08:33.644Z,16.5
2023-01-11T01:09:35.916Z,16.5
2023-01-11T01:10:38.164Z,16.4
2023-01-11T01:11:40.667Z,16.5
2023-01-11T01:12:42.887Z,16.5
2023-01-11T01:13:45.166Z,16.5
2023-01-11T01:14:47.389Z,16.4
2023-01-11T01:15:49.484Z,16.4
2023-01-11T01:16:51.837Z,16.5
2023-01-11T01:17:54.088Z,16.4
2023-01-11T01:18:56.602Z,16.5
2023-01-11T01:19:59.169Z,16.4
2023-01-11T01:21:01.383Z,16.5
2023-01-11T01:22:03.908Z,16.5
2023-01-11T01:23:06.450Z,16.4
2023-01-11T01:24:08.723Z,16.5
2023-01-11T01:25:10.711Z,16.5
2023-01-11T01:26:12.967Z,16.6
2023-01-11T01:27:15.471Z,16.5
2023-01-11T01:28:17.978Z,16.6
2023-01-11T01:29:20.555Z,16.5
2023-01-11T01:30:23.118Z,16.6
2023-01-11T01:31:25.770Z,16.5
2023-01-11T01:32:28.468Z,16.7
2023-01-11T01:33:30.977Z,16.5
2023-01-11T01:34:33.175Z,16.5
2023-01-11T01:35:35.734Z,16.5
2023-01-11T01:36:37.948Z,16.5
2023-01-11T01:37:40.465Z,16.5
2023-01-11T01:38:42.701Z,16.6
2023-01-11T01:39:44.953Z,16.5
2023-01-11T01:40:47.488Z,16.4
2023-01-11T01:41:50.019Z,16.5
2023-01-11T01:42:52.579Z,16.5
2023-01-11T01:43:55.084Z,16.5
2023-01-11T01:44:57.655Z,16.5
2023-01-11T01:45:59.912Z,16.4
2023-01-11T01:47:02.319Z,16.5
2023-01-11T01:48:04.299Z,16.5
2023-01-11T01:49:06.813Z,16.4
2023-01-11T01:50:09.092Z,16.6
2023-01-11T01:51:11.670Z,16.5
2023-01-11T01:52:13.932Z,16.6
2023-01-11T01:53:16.203Z,16.5
2023-01-11T01:54:18.733Z,16.6
2023-01-11T01:55:21.222Z,16.6
2023-01-11T01:56:23.470Z,16.5
2023-01-11T01:57:25.987Z,16.6
2023-01-11T01:58:28.498Z,16.6
2023-01-11T01:59:31.004Z,16.5
2023-01-11T02:00:33.560Z,16.6
2023-01-11T02:01:36.258Z,16.5
2023-01-11T02:02:38.876Z,16.6
2023-01-11T02:03:41.351Z,16.6
2023-01-11T02:04:43.864Z,16.6
2023-01-11T02:05:46.413Z,16.6
2023-01-11T02:06:49.200Z,16.5
2023-01-11T02:07:51.913Z,16.6
2023-01-11T02:08:54.428Z,16.6
2023-01-11T02:09:56.650Z,16.5
2023-01-11T02:10:58.890Z,16.6
2023-01-11T02:12:01.412Z,16.6
2023-01-11T02:13:03.371Z,16.6
2023-01-11T02:14:05.877Z,16.5
2023-01-11T02:15:08.141Z,16.6
2023-01-11T02:16:10.808Z,16.7
2023-01-11T02:17:13.270Z,16.6
2023-01-11T02:18:15.803Z,16.6
2023-01-11T02:19:18.077Z,16.6
2023-01-11T02:20:20.578Z,16.5
2023-01-11T02:21:23.097Z,16.6
2023-01-11T02:22:25.808Z,16.7
2023-01-11T02:23:28.320Z,16.6
2023-01-11T02:24:30.004Z,16.6
2023-01-11T02:25:32.522Z,16.7
2023-01-11T02:26:35.021Z,16.6
2023-01-11T02:27:37.275Z,16.7
2023-01-11T02:28:39.792Z,16.7
2023-01-11T02:29:42.047Z,16.7
2023-01-11T02:30:44.561Z,16.6
2023-01-11T02:31:46.852Z,16.6
2023-01-11T02:32:49.088Z,16.6
2023-01-11T02:33:51.320Z,16.6
2023-01-11T02:34:53.858Z,16.6
2023-01-11T02:35:56.359Z,16.6
2023-01-11T02:36:58.861Z,16.6
2023-01-11T02:38:01.450Z,16.7
2023-01-11T02:39:03.977Z,16.6
2023-01-11T02:40:06.214Z,16.6
2023-01-11T02:41:08.649Z,16.6
2023-01-11T02:42:10.872Z,16.6
2023-01-11T02:43:13.392Z,16.6
2023-01-11T02:44:15.612Z,16.7
2023-01-11T02:45:17.867Z,16.7
2023-01-11T02:46:20.487Z,16.7
2023-01-11T02:47:22.896Z,16.7
2023-01-11T02:48:25.395Z,16.6
2023-01-11T02:49:27.710Z,16.7
2023-01-11T02:50:29.959Z,16.7
2023-01-11T02:51:32.511Z,16.7
2023-01-11T02:52:34.746Z,16.7
2023-01-11T02:53:37.367Z,16.6
2023-01-11T02:54:39.334Z,16.7
2023-01-11T02:55:41.291Z,16.7
2023-01-11T02:56:43.783Z,16.7
2023-01-11T02:57:46.011Z,16.6
2023-01-11T02:58:48.239Z,16.6
2023-01-11T02:59:50.497Z,16.6
2023-01-11T03:00:52.729Z,16.6
2023-01-11T03:01:55.344Z,16.7
2023-01-11T03:02:57.997Z,16.6
2023-01-11T03:04:00.494Z,16.7
2023-01-11T03:05:03.010Z,16.6
2023-01-11T03:06:05.544Z,16.6
2023-01-11T03:07:08.083Z,16.7
2023-01-11T03:08:10.601Z,16.7
2023-01-11T03:09:13.195Z,16.6
2023-01-11T03:10:15.432Z,16.6
2023-01-11T03:11:17.650Z,16.7
2023-01-11T03:12:19.898Z,16.7
2023-01-11T03:13:22.431Z,16.8
2023-01-11T03:14:24.700Z,16.7
2023-01-11T03:15:26.357Z,16.7
2023-01-11T03:16:29.009Z,16.7
2023-01-11T03:17:31.442Z,16.7
2023-01-11T03:18:33.995Z,16.6
2023-01-11T03:19:36.529Z,16.6
2023-01-11T03:20:38.796Z,16.7
2023-01-11T03:21:41.357Z,16.7
2023-01-11T03:22:43.880Z,16.6
2023-01-11T03:23:46.395Z,16.6
2023-01-11T03:24:48.994Z,16.7
2023-01-11T03:25:51.488Z,16.7
2023-01-11T03:26:53.983Z,16.6
2023-01-11T03:27:56.215Z,16.6
2023-01-11T03:28:58.740Z,16.6
2023-01-11T03:30:01.327Z,16.7
2023-01-11T03:31:03.918Z,16.6
2023-01-11T03:32:06.394Z,16.7
2023-01-11T03:33:08.357Z,16.7
2023-01-11T03:34:10.926Z,16.7
2023-01-11T03:35:13.443Z,16.6
2023-01-11T03:36:15.415Z,16.7
2023-01-11T03:37:17.941Z,16.7
2023-01-11T03:38:19.878Z,16.8
2023-01-11T03:39:22.103Z,16.7
2023-01-11T03:40:24.686Z,16.7
2023-01-11T03:41:27.205Z,16.7
2023-01-11T03:42:29.743Z,16.7
2023-01-11T03:43:31.987Z,16.7
2023-01-11T03:44:34.544Z,16.7
2023-01-11T03:45:36.793Z,16.6
2023-01-11T03:46:39.508Z,16.7
2023-01-11T03:47:41.965Z,16.6
2023-01-11T03:48:44.479Z,16.6
2023-01-11T03:49:46.480Z,16.7
2023-01-11T03:50:48.997Z,16.7
2023-01-11T03:51:51.505Z,16.7
2023-01-11T03:52:53.736Z,16.7
2023-01-11T03:53:56.239Z,16.7
2023-01-11T03:54:58.469Z,16.7
2023-01-11T03:56:01.098Z,16.7
2023-01-11T03:57:03.330Z,16.7
2023-01-11T03:58:05.578Z,16.6
2023-01-11T03:59:07.802Z,16.7
2023-01-11T04:00:10.325Z,16.7
2023-01-11T04:01:12.681Z,16.7
2023-01-11T04:02:15.467Z,16.7
2023-01-11T04:03:17.709Z,16.7
2023-01-11T04:04:20.286Z,16.7
2023-01-11T04:05:22.716Z,16.7
2023-01-11T04:06:25.382Z,16.6
2023-01-11T04:07:27.799Z,16.7
2023-01-11T04:08:30.307Z,16.7
2023-01-11T04:09:32.555Z,16.7
2023-01-11T04:10:34.775Z,16.7
2023-01-11T04:11:37.099Z,16.6
2023-01-11T04:12:39.604Z,16.7
2023-01-11T04:13:41.571Z,16.6
2023-01-11T04:14:44.072Z,16.7
2023-01-11T04:15:46.339Z,16.6
2023-01-11T04:16:48.826Z,16.6
2023-01-11T04:17:51.049Z,16.7
2023-01-11T04:18:53.289Z,16.6
2023-01-11T04:19:55.253Z,16.7
2023-01-11T04:20:57.217Z,16.7
2023-01-11T04:21:59.771Z,16.6
2023-01-11T04:23:02.303Z,16.6
2023-01-11T04:24:04.842Z,16.6
2023-01-11T04:25:07.380Z,16.6
2023-01-11T04:26:09.619Z,16.6
2023-01-11T04:27:12.210Z,16.5
2023-01-11T04:28:14.438Z,16.6
2023-01-11T04:29:16.952Z,16.6
2023-01-11T04:30:19.446Z,16.6
2023-01-11T04:31:22.195Z,16.6
2023-01-11T04:32:24.324Z,16.7
2023-01-11T04:33:26.555Z,16.6
2023-01-11T04:34:28.502Z,16.5
2023-01-11T04:35:30.755Z,16.7
2023-01-11T04:36:33.012Z,16.6
2023-01-11T04:37:35.262Z,16.5
2023-01-11T04:38:37.781Z,16.6
2023-01-11T04:39:40.095Z,16.5
2023-01-11T04:40:42.583Z,16.6
2023-01-11T04:41:44.808Z,16.5
2023-01-11T04:42:47.409Z,16.5
2023-01-11T04:43:49.364Z,16.5
2023-01-11T04:44:51.068Z,16.5
2023-01-11T04:45:53.704Z,16.7
2023-01-11T04:46:56.393Z,16.4
2023-01-11T04:47:58.638Z,16.5
2023-01-11T04:49:00.858Z,16.5
2023-01-11T04:50:03.426Z,16.5
2023-01-11T04:51:06.030Z,16.4
2023-01-11T04:52:08.578Z,16.5
2023-01-11T04:53:11.099Z,16.5
2023-01-11T04:54:13.083Z,16.6
2023-01-11T04:55:15.630Z,16.6
2023-01-11T04:56:17.903Z,16.5
2023-01-11T04:57:20.143Z,16.4
2023-01-11T04:58:22.852Z,16.5
2023-01-11T04:59:25.343Z,16.6
2023-01-11T05:00:27.560Z,16.5
2023-01-11T05:01:30.265Z,16.4
2023-01-11T05:02:33.036Z,16.6
2023-01-11T05:03:34.982Z,16.4
2023-01-11T05:04:37.241Z,16.5
2023-01-11T05:05:39.222Z,16.4
2023-01-11T05:06:41.856Z,16.5
2023-01-11T05:07:44.646Z,16.4
2023-01-11T05:08:47.159Z,16.5
2023-01-11T05:09:49.436Z,16.4
2023-01-11T05:10:51.382Z,16.5
2023-01-11T05:11:53.617Z,16.4
2023-01-11T05:12:56.014Z,16.4
2023-01-11T05:13:58.589Z,16.4
2023-01-11T05:15:00.807Z,16.4
2023-01-11T05:16:03.051Z,16.5
2023-01-11T05:17:05.637Z,16.5
2023-01-11T05:18:07.610Z,16.4
2023-01-11T05:19:09.843Z,16.5
2023-01-11T05:20:12.487Z,16.4
2023-01-11T05:21:14.996Z,16.4
2023-01-11T05:22:17.240Z,16.4
2023-01-11T05:23:19.513Z,16.4
2023-01-11T05:24:21.753Z,16.4
2023-01-11T05:25:24.250Z,16.4
2023-01-11T05:26:26.534Z,16.4
2023-01-11T05:27:29.043Z,16.5
2023-01-11T05:28:31.549Z,16.4
2023-01-11T05:29:33.880Z,16.4
2023-01-11T05:30:36.100Z,16.5
2023-01-11T05:31:38.722Z,16.5
2023-01-11T05:32:41.141Z,16.4
2023-01-11T05:33:43.410Z,16.4
2023-01-11T05:34:45.938Z,16.5
2023-01-11T05:35:47.921Z,16.5
2023-01-11T05:36:50.446Z,16.5
2023-01-11T05:37:52.372Z,16.4
2023-01-11T05:38:54.623Z,16.5
2023-01-11T05:39:57.117Z,16.3
2023-01-11T05:40:59.350Z,16.4
2023-01-11T05:42:01.900Z,16.5
2023-01-11T05:43:04.149Z,16.4
2023-01-11T05:44:06.388Z,16.5
2023-01-11T05:45:08.713Z,16.4
2023-01-11T05:46:11.306Z,16.3
2023-01-11T05:47:13.494Z,16.3
2023-01-11T05:48:15.727Z,16.4
2023-01-11T05:49:17.964Z,16.5
2023-01-11T05:50:20.474Z,16.4
2023-01-11T05:51:22.442Z,16.4
2023-01-11T05:52:24.942Z,16.4
2023-01-11T05:53:27.439Z,16.4
2023-01-11T05:54:30.030Z,16.4
2023-01-11T05:55:32.005Z,16.4
2023-01-11T05:56:34.739Z,16.5
2023-01-11T05:57:37.350Z,16.4
2023-01-11T05:58:39.896Z,16.4
2023-01-11T05:59:42.452Z,16.4
2023-01-11T06:00:45.027Z,16.4
2023-01-11T06:01:47.736Z,16.4
2023-01-11T06:02:50.423Z,16.5
2023-01-11T06:03:53.523Z,16.4
2023-01-11T06:04:56.135Z,16.4
2023-01-11T06:05:58.083Z,16.4
2023-01-11T06:07:00.580Z,16.5
2023-01-11T06:08:03.042Z,16.4
2023-01-11T06:09:05.297Z,16.4
2023-01-11T06:10:07.921Z,16.5
2023-01-11T06:11:10.145Z,16.4
2023-01-11T06:12:12.688Z,16.3
2023-01-11T06:13:14.929Z,16.4
2023-01-11T06:14:17.159Z,16.3
2023-01-11T06:15:19.694Z,16.4
2023-01-11T06:16:22.532Z,16.4
2023-01-11T06:17:25.465Z,16.4
2023-01-11T06:18:27.977Z,16.4
2023-01-11T06:19:29.927Z,16.4
2023-01-11T06:20:32.181Z,16.4
2023-01-11T06:21:34.430Z,16.3
2023-01-11T06:22:36.968Z,16.4
2023-01-11T06:23:39.220Z,16.4
2023-01-11T06:24:41.806Z,16.3
2023-01-11T06:25:45.678Z,16.3
2023-01-11T06:26:47.911Z,16.5
2023-01-11T06:27:50.418Z,16.3
2023-01-11T06:28:52.969Z,16.3
2023-01-11T06:29:55.511Z,16.3
2023-01-11T06:30:57.913Z,16.3
2023-01-11T06:32:00.903Z,16.4
2023-01-11T06:33:03.423Z,16.4
2023-01-11T06:34:05.969Z,16.4
2023-01-11T06:35:08.487Z,16.4
2023-01-11T06:36:10.182Z,16.3
2023-01-11T06:37:12.156Z,16.3
2023-01-11T06:38:14.100Z,16.2
2023-01-11T06:39:16.331Z,16.4
2023-01-11T06:40:18.853Z,16.4
2023-01-11T06:41:21.400Z,16.3
2023-01-11T06:42:23.638Z,16.3
2023-01-11T06:43:25.902Z,16.4
2023-01-11T06:44:28.506Z,16.4
2023-01-11T06:45:30.727Z,16.3
2023-01-11T06:46:33.334Z,16.2
2023-01-11T06:47:35.589Z,16.4
2023-01-11T06:48:37.522Z,16.4
2023-01-11T06:49:40.032Z,16.3
2023-01-11T06:50:42.279Z,16.4
2023-01-11T06:51:44.254Z,16.3
2023-01-11T06:52:46.767Z,16.3
2023-01-11T06:53:49.272Z,16.3
2023-01-11T06:54:51.814Z,16.4
2023-01-11T06:55:54.324Z,16.3
2023-01-11T06:56:56.312Z,16.4
2023-01-11T06:57:58.875Z,16.3
2023-01-11T06:59:02.113Z,16.4
2023-01-11T07:00:05.186Z,16.3
2023-01-11T07:01:07.996Z,16.3
2023-01-11T07:02:10.780Z,16.3
2023-01-11T07:03:13.364Z,16.3
2023-01-11T07:04:15.628Z,16.4
2023-01-11T07:05:20.055Z,16.3
2023-01-11T07:06:22.981Z,16.3
2023-01-11T07:07:25.214Z,16.4
2023-01-11T07:08:27.470Z,16.3
2023-01-11T07:09:29.795Z,16.3
2023-01-11T07:10:31.591Z,16.3
2023-01-11T07:11:33.836Z,16.3
2023-01-11T07:12:36.221Z,16.3
2023-01-11T07:13:38.805Z,16.4
2023-01-11T07:14:41.053Z,16.3
2023-01-11T07:15:43.440Z,16.3
2023-01-11T07:16:46.172Z,16.4
2023-01-11T07:17:48.691Z,16.3
2023-01-11T07:18:51.292Z,16.3
2023-01-11T07:19:53.821Z,16.4
2023-01-11T07:20:56.330Z,16.3
2023-01-11T07:21:58.862Z,16.3
2023-01-11T07:23:01.506Z,16.3
2023-01-11T07:24:03.857Z,16.3
2023-01-11T07:25:05.596Z,16.3
2023-01-11T07:26:08.310Z,16.4
2023-01-11T07:27:11.172Z,16.3
2023-01-11T07:28:13.713Z,16.2
2023-01-11T07:29:15.977Z,16.3
2023-01-11T07:30:18.501Z,16.3
2023-01-11T07:31:20.795Z,16.3
2023-01-11T07:32:23.669Z,16.3
2023-01-11T07:33:26.215Z,16.3
2023-01-11T07:34:29.008Z,16.3
2023-01-11T07:35:31.543Z,16.3
2023-01-11T07:36:34.057Z,16.4
2023-01-11T07:37:36.341Z,16.3
2023-01-11T07:38:38.898Z,16.2
2023-01-11T07:40:46.096Z,16.2
2023-01-11T07:41:48.074Z,16.2
2023-01-11T07:42:50.611Z,16.2
2023-01-11T07:43:53.177Z,16.2
2023-01-11T07:44:55.742Z,16.3
2023-01-11T07:45:58.638Z,16.3
2023-01-11T07:47:01.707Z,16.4
2023-01-11T07:48:04.441Z,16.3
2023-01-11T07:49:06.704Z,16.3
2023-01-11T07:50:09.310Z,16.3
2023-01-11T07:51:11.296Z,16.4
2023-01-11T07:52:13.828Z,16.3
2023-01-11T07:53:16.110Z,16.3
2023-01-11T07:54:18.075Z,16.3
2023-01-11T07:55:20.612Z,16.3
2023-01-11T07:56:24.164Z,16.3
2023-01-11T07:57:26.669Z,16.3
2023-01-11T07:58:28.957Z,16.3
2023-01-11T07:59:31.241Z,16.2
2023-01-11T08:00:33.770Z,16.3
2023-01-11T08:01:36.368Z,16.3
2023-01-11T08:02:39.344Z,16.3
2023-01-11T08:03:42.590Z,16.3
2023-01-11T08:04:45.785Z,16.3
2023-01-11T08:05:48.377Z,16.2
2023-01-11T08:06:50.915Z,16.2
2023-01-11T08:07:53.164Z,16.2
2023-01-11T08:08:55.435Z,16.3
2023-01-11T08:09:57.968Z,16.4
2023-01-11T08:11:00.592Z,16.3
2023-01-11T08:12:07.443Z,16.3
2023-01-11T08:13:09.737Z,16.3
2023-01-11T08:14:11.741Z,16.3
2023-01-11T08:15:14.426Z,16.2
2023-01-11T08:16:17.010Z,16.2
2023-01-11T08:17:19.855Z,16.3
2023-01-11T08:18:22.199Z,16.2
2023-01-11T08:19:24.704Z,16.2
2023-01-11T08:20:26.671Z,16.2
2023-01-11T08:21:29.340Z,16.3
2023-01-11T08:22:31.939Z,16.2
2023-01-11T08:23:34.981Z,16.2
2023-01-11T08:24:37.379Z,16.2
2023-01-11T08:25:39.900Z,16.3
2023-01-11T08:26:42.489Z,16.2
2023-01-11T08:27:44.859Z,16.2
2023-01-11T08:28:47.136Z,16.3
2023-01-11T08:29:49.116Z,16.3
2023-01-11T08:30:51.461Z,16.2
2023-01-11T08:31:54.175Z,16.3
2023-01-11T08:32:56.388Z,16.3
2023-01-11T08:33:58.894Z,16.3
2023-01-11T08:35:01.161Z,16.2
2023-01-11T08:36:03.771Z,16.2
2023-01-11T08:37:06.104Z,16.2
2023-01-11T08:38:08.106Z,16.3
2023-01-11T08:39:10.653Z,16.2
2023-01-11T08:40:12.926Z,16.2
2023-01-11T08:41:15.561Z,16.3
2023-01-11T08:42:18.091Z,16.3
2023-01-11T08:43:20.070Z,16.2
2023-01-11T08:45:27.353Z,16.2
2023-01-11T08:46:29.165Z,16.2
2023-01-11T08:47:32.117Z,16.3
2023-01-11T08:48:34.658Z,16.2
2023-01-11T08:49:37.254Z,16.2
2023-01-11T08:50:39.490Z,16.2
2023-01-11T08:51:41.762Z,16.2
2023-01-11T08:52:44.461Z,16.2
2023-01-11T08:53:46.993Z,16.2
2023-01-11T08:54:49.248Z,16.2
2023-01-11T08:55:51.277Z,16.2
2023-01-11T08:56:53.831Z,16.2
2023-01-11T08:57:56.386Z,16.3
2023-01-11T08:58:58.326Z,16.2
2023-01-11T09:00:00.884Z,16.2
2023-01-11T09:01:02.850Z,16.2
2023-01-11T09:02:05.461Z,16.2
2023-01-11T09:03:08.109Z,16.2
2023-01-11T09:06:20.652Z,16.3
2023-01-11T09:07:23.201Z,16.2
2023-01-11T09:08:25.924Z,16.2
2023-01-11T09:09:28.501Z,16.2
2023-01-11T09:10:30.816Z,16.3
2023-01-11T09:11:32.800Z,16.2
2023-01-11T09:12:35.014Z,16.2
2023-01-11T09:13:37.270Z,16.2
2023-01-11T09:14:39.550Z,16.2
2023-01-11T09:15:41.874Z,16.1
2023-01-11T09:16:44.546Z,16.2
2023-01-11T09:17:47.186Z,16.2
2023-01-11T09:18:49.717Z,16.2
2023-01-11T09:19:51.939Z,16.2
2023-01-11T09:20:54.393Z,16.2
2023-01-11T09:21:57.031Z,16.2
2023-01-11T09:22:59.323Z,16.2
2023-01-11T09:24:01.994Z,16.2
2023-01-11T09:25:04.255Z,16.2
2023-01-11T09:26:06.203Z,16.2
2023-01-11T09:27:09.012Z,16.2
2023-01-11T09:28:11.769Z,16.2
2023-01-11T09:29:14.567Z,16.2
2023-01-11T09:30:17.050Z,16.2
2023-01-11T09:31:19.765Z,16.3
2023-01-11T09:32:22.605Z,16.3
2023-01-11T09:33:24.862Z,16.2
2023-01-11T09:34:27.411Z,16.3
2023-01-11T09:35:29.995Z,16.3
2023-01-11T09:36:32.549Z,16.2
2023-01-11T09:37:34.860Z,16.2
2023-01-11T09:38:37.426Z,16.2
2023-01-11T09:39:40.057Z,16.2
2023-01-11T09:40:42.053Z,16.1
2023-01-11T09:41:44.377Z,16.1
2023-01-11T09:42:46.923Z,16.2
2023-01-11T09:43:49.202Z,16.2
2023-01-11T09:44:51.510Z,16.2
2023-01-11T09:45:54.094Z,16.2
2023-01-11T09:46:56.912Z,16.2
2023-01-11T09:47:59.118Z,16.2
2023-01-11T09:49:01.814Z,16.2
2023-01-11T09:50:04.427Z,16.2
2023-01-11T09:51:07.132Z,16.2
2023-01-11T09:52:09.117Z,16.2
2023-01-11T09:53:11.389Z,16.2
2023-01-11T09:54:13.976Z,16.2
2023-01-11T09:55:16.632Z,16.2
2023-01-11T09:56:18.877Z,16.1
2023-01-11T09:57:21.405Z,16.2
2023-01-11T09:58:23.931Z,16.2
2023-01-11T09:59:26.221Z,16.2
2023-01-11T10:00:28.893Z,16.2
2023-01-11T10:01:31.614Z,16.2
2023-01-11T10:02:34.124Z,16.2
2023-01-11T10:03:35.905Z,16.2
2023-01-11T10:04:38.509Z,16.2
2023-01-11T10:05:41.211Z,16.2
2023-01-11T10:06:43.176Z,16.3
2023-01-11T10:07:45.467Z,16.2
2023-01-11T10:18:24.958Z,16.1
2023-01-11T10:19:40.949Z,16.2
2023-01-11T10:20:43.235Z,16.3
2023-01-11T10:21:45.917Z,16.3
2023-01-11T10:22:48.184Z,16.3
2023-01-11T10:23:50.786Z,16.3
2023-01-11T10:24:53.005Z,16.3
2023-01-11T10:25:55.538Z,16.4
2023-01-11T10:26:58.191Z,16.3
2023-01-11T10:28:00.875Z,16.2
2023-01-11T10:29:03.449Z,16.2
2023-01-11T10:30:05.988Z,16.2
2023-01-11T10:31:08.502Z,16.2
2023-01-11T10:32:11.222Z,16.1
2023-01-11T10:33:13.756Z,16.2
2023-01-11T10:34:16.327Z,16.1
2023-01-11T10:35:18.878Z,16.1
2023-01-11T10:36:21.157Z,16.2
2023-01-11T10:37:23.808Z,16.2
2023-01-11T10:38:26.122Z,16.2
2023-01-11T10:39:28.384Z,16.1
2023-01-11T10:40:30.670Z,16.2
2023-01-11T10:41:33.239Z,16.2
2023-01-11T10:42:35.288Z,16.1
2023-01-11T10:43:37.268Z,16.2
2023-01-11T10:44:39.244Z,16.1
2023-01-11T10:45:41.604Z,16.2
2023-01-11T10:46:43.778Z,16.1
2023-01-11T10:47:46.181Z,16.2
2023-01-11T10:48:48.425Z,16.2
2023-01-11T10:49:50.960Z,16.2
2023-01-11T10:50:53.513Z,16.2
2023-01-11T10:51:55.841Z,16.2
2023-01-11T10:52:58.238Z,16.2
2023-01-11T10:54:00.266Z,16.3
2023-01-11T10:55:02.828Z,16.2
2023-01-11T10:56:05.422Z,16.2
2023-01-11T10:57:08.933Z,16.2
2023-01-11T10:58:11.753Z,16.2
2023-01-11T10:59:14.186Z,16.2
2023-01-11T11:00:16.717Z,16.2
2023-01-11T11:01:19.174Z,16.1
2023-01-11T11:02:25.395Z,16.2
2023-01-11T11:03:28.704Z,16.2
2023-01-11T11:04:31.246Z,16.1
2023-01-11T11:05:34.075Z,16.2
2023-01-11T11:06:36.115Z,16.2
2023-01-11T11:07:38.152Z,16.1
2023-01-11T11:08:40.776Z,16.2
2023-01-11T11:09:43.385Z,16.2
2023-01-11T11:10:45.625Z,16.2
2023-01-11T11:11:48.203Z,16.2
2023-01-11T11:12:50.461Z,16.1
2023-01-11T11:13:53.025Z,16.2
2023-01-11T11:14:55.553Z,16.1
2023-01-11T11:15:58.502Z,16.2
2023-01-11T11:17:01.417Z,16.2
2023-01-11T11:18:03.932Z,16.2
2023-01-11T11:19:06.186Z,16.2
2023-01-11T11:20:08.708Z,16.2
2023-01-11T11:21:10.951Z,16.2
2023-01-11T11:22:13.478Z,16.1
2023-01-11T11:23:15.509Z,16.2
2023-01-11T11:24:18.273Z,16.1
2023-01-11T11:25:20.881Z,16.2
2023-01-11T11:26:22.886Z,16.2
2023-01-11T11:27:25.099Z,16.2
2023-01-11T11:28:27.647Z,16.2
2023-01-11T11:29:30.209Z,16.2
2023-01-11T11:30:32.849Z,16.1
2023-01-11T11:31:35.499Z,16.2
2023-01-11T11:32:38.021Z,16.2
2023-01-11T11:33:40.532Z,16.2
2023-01-11T11:34:42.783Z,16.3
2023-01-11T11:35:44.739Z,16.2
2023-01-11T11:36:47.318Z,16.2
2023-01-11T11:37:49.305Z,16.2
2023-01-11T11:38:51.582Z,16.2
2023-01-11T11:39:56.851Z,16.2
2023-01-11T11:40:59.424Z,16.2
2023-01-11T11:42:01.702Z,16.2
2023-01-11T11:43:04.211Z,16.2
2023-01-11T11:44:06.481Z,16.1
2023-01-11T11:45:09.092Z,16.2
2023-01-11T11:46:15.573Z,16.1
2023-01-11T11:47:17.704Z,16.2
2023-01-11T11:48:20.269Z,16.2
2023-01-11T11:49:22.244Z,16.2
2023-01-11T11:51:29.204Z,16.1
2023-01-11T11:52:31.642Z,16.2
2023-01-11T11:53:34.899Z,16.2
2023-01-11T11:54:37.525Z,16.1
2023-01-11T11:55:40.184Z,16.1
2023-01-11T11:56:42.737Z,16.1
2023-01-11T11:57:44.992Z,16.2
2023-01-11T11:58:47.242Z,16.2
2023-01-11T11:59:49.503Z,16.2
2023-01-11T12:00:51.530Z,16.2
2023-01-11T12:01:53.891Z,16.2
2023-01-11T12:02:56.336Z,16.2
2023-01-11T12:03:58.561Z,16.2
2023-01-11T12:05:00.874Z,16.2
2023-01-11T12:06:03.729Z,16.1
2023-01-11T12:07:06.262Z,16.2
2023-01-11T12:08:08.315Z,16.2
2023-01-11T12:09:10.580Z,16.2
2023-01-11T12:10:12.973Z,16.1
2023-01-11T12:11:15.352Z,16.2
2023-01-11T12:12:18.131Z,16.2
2023-01-11T12:13:20.404Z,16.2
2023-01-11T12:14:22.869Z,16.2
2023-01-11T12:15:25.170Z,16.2
2023-01-11T12:16:27.825Z,16.2
2023-01-11T12:17:30.255Z,16.1
2023-01-11T12:18:32.528Z,16.2
2023-01-11T12:19:34.627Z,16.2
2023-01-11T12:20:36.909Z,16.2
2023-01-11T12:21:39.419Z,16.2
2023-01-11T12:22:42.003Z,16.3
2023-01-11T12:23:44.536Z,16.1
2023-01-11T12:24:46.841Z,16.1
2023-01-11T12:25:49.126Z,16.1
2023-01-11T12:26:51.720Z,16.2
2023-01-11T12:27:54.818Z,16.1
2023-01-11T12:28:56.541Z,16.2
2023-01-11T12:29:59.056Z,16.2
2023-01-11T12:31:01.419Z,16.2
2023-01-11T12:32:04.206Z,16.2
2023-01-11T12:33:06.450Z,16.1
2023-01-11T12:34:09.086Z,16.2
2023-01-11T12:35:11.932Z,16.2
2023-01-11T12:36:14.734Z,16.1
2023-01-11T12:37:16.961Z,16.2
2023-01-11T12:38:19.610Z,16.2
2023-01-11T12:39:21.891Z,16.2
2023-01-11T12:40:23.872Z,16.1
2023-01-11T12:41:26.554Z,16.2
2023-01-11T12:42:29.176Z,16.1
2023-01-11T12:43:31.727Z,16.2
2023-01-11T12:44:34.266Z,16.2
2023-01-11T12:45:36.240Z,16.1
2023-01-11T12:46:38.224Z,16.2
2023-01-11T12:47:40.750Z,16.2
2023-01-11T12:48:43.323Z,16.2
2023-01-11T12:49:44.725Z,16.1
2023-01-11T12:50:47.313Z,16.2
2023-01-11T12:51:49.871Z,16.2
2023-01-11T12:52:52.605Z,16.2
2023-01-11T12:53:54.944Z,16.1
2023-01-11T12:54:57.296Z,16.2
2023-01-11T12:55:59.863Z,16.1
2023-01-11T12:57:02.429Z,16.2
2023-01-11T12:58:04.771Z,16.2
2023-01-11T12:59:07.078Z,16.1
2023-01-11T13:00:09.409Z,16.2
2023-01-11T13:01:12.009Z,16.2
2023-01-11T13:02:14.406Z,16.2
2023-01-11T13:03:16.947Z,16.2
2023-01-11T13:04:19.643Z,16.1
2023-01-11T13:05:22.795Z,16.2
2023-01-11T13:06:25.203Z,16.2
2023-01-11T13:07:27.175Z,16.1
2023-01-11T13:08:29.718Z,16.2
2023-01-11T13:09:31.999Z,16.2
2023-01-11T13:10:34.311Z,16.2
2023-01-11T13:11:36.969Z,16.2
2023-01-11T13:12:39.554Z,16.2
2023-01-11T13:13:42.228Z,16.1
2023-01-11T13:14:44.794Z,16.2
2023-01-11T13:15:47.346Z,16.1
2023-01-11T13:16:50.056Z,16.2
2023-01-11T13:17:52.268Z,16.2
2023-01-11T13:18:54.274Z,16.3
2023-01-11T13:19:56.799Z,16.1
2023-01-11T13:22:04.038Z,16.2
2023-01-11T13:23:06.294Z,16.1
2023-01-11T13:24:08.539Z,16.1
2023-01-11T13:25:10.817Z,16.2
2023-01-11T13:26:13.502Z,16.1
2023-01-11T13:27:16.401Z,16.2
2023-01-11T13:29:23.975Z,16.2
2023-01-11T13:30:26.685Z,16.1
2023-01-11T13:31:29.226Z,16.2
2023-01-11T13:32:31.460Z,16.2
2023-01-11T13:33:33.758Z,16.2
2023-01-11T13:34:36.282Z,16.2
2023-01-11T13:35:38.879Z,16.1
2023-01-11T13:36:41.146Z,16.2
2023-01-11T13:37:43.389Z,16.1
2023-01-11T13:38:45.963Z,16.2
2023-01-11T13:39:48.276Z,16.2
2023-01-11T13:40:50.534Z,16.2
2023-01-11T13:41:53.166Z,16.2
2023-01-11T13:42:55.377Z,16.2
2023-01-11T13:43:57.705Z,16.2
2023-01-11T13:44:59.985Z,16.2
2023-01-11T13:46:02.989Z,16.1
2023-01-11T13:47:05.612Z,16.1
2023-01-11T13:48:08.014Z,16.2
2023-01-11T13:49:10.597Z,16.1
2023-01-11T13:50:12.971Z,16.2
2023-01-11T13:51:15.065Z,16.2
2023-01-11T13:52:17.037Z,16.2
2023-01-11T13:53:19.045Z,16.1
2023-01-11T13:54:21.361Z,16.2
2023-01-11T13:56:28.416Z,16.2
2023-01-11T13:57:31.145Z,16.2
2023-01-11T13:58:36.915Z,16.1
2023-01-11T13:59:38.974Z,16.1
2023-01-11T14:00:41.304Z,16.2
2023-01-11T14:01:44.197Z,16.2
2023-01-11T14:02:47.077Z,16.2
2023-01-11T14:03:49.754Z,16.1
2023-01-11T14:04:52.811Z,16.1
2023-01-11T14:05:55.469Z,16.1
2023-01-11T14:06:57.798Z,16.2
2023-01-11T14:07:59.901Z,16.1
2023-01-11T14:09:02.672Z,16.2
2023-01-11T14:10:04.693Z,16.3